sensor_id;sensor_type;location;lat;lon;timestamp;P1;durP1;ratioP1;P2;durP2;ratioP2
25443;SDS011;13368;52.346;4.678;2023-08-24T00:00:00;12.4;;;7.8;;
25443;SDS011;13368;52.346;4.678;2023-08-24T00:05:00;15.7;;;8.2;;
25443;SDS011;13368;52.346;4.678;2023-08-24T00:10:00;12.9;;;8.5;;
25443;SDS011;13368;52.346;4.678;2023-08-24T00:15:00;11.2;;;8.4;;
25443;SDS011;13368;52.346;4.678;2023-08-24T00:20:00;14.5;;;8.3;;
25443;SDS011;13368;52.346;4.678;2023-08-24T00:25:00;11.5;;;7.7;;
25443;SDS011;13368;52.346;4.678;2023-08-24T00:30:01;10.1;;;7.0;;
25443;SDS011;13368;52.346;4.678;2023-08-24T00:35:00;13.2;;;6.5;;
25443;SDS011;13368;52.346;4.678;2023-08-24T00:40:00;11.3;;;6.7;;
25443;SDS011;13368;52.346;4.678;2023-08-24T00:45:00;10.5;;;6.8;;
25443;SDS011;13368;52.346;4.678;2023-08-24T00:50:00;11.2;;;6.3;;
25443;SDS011;13368;52.346;4.678;2023-08-24T00:55:00;12.7;;;6.3;;
25443;SDS011;13368;52.346;4.678;2023-08-24T01:00:02;8.6;;;5.3;;
25443;SDS011;13368;52.346;4.678;2023-08-24T01:05:00;8.4;;;4.3;;
25443;SDS011;13368;52.346;4.678;2023-08-24T01:10:00;8.3;;;4.5;;
25443;SDS011;13368;52.346;4.678;2023-08-24T01:15:03;7.9;;;4.4;;
25443;SDS011;13368;52.346;4.678;2023-08-24T01:20:01;8.8;;;4.7;;
25443;SDS011;13368;52.346;4.678;2023-08-24T01:25:03;6.0;;;4.2;;
25443;SDS011;13368;52.346;4.678;2023-08-24T01:30:00;9.0;;;4.2;;
25443;SDS011;13368;52.346;4.678;2023-08-24T01:35:01;6.3;;;4.2;;
25443;SDS011;13368;52.346;4.678;2023-08-24T01:40:03;6.5;;;4.1;;
25443;SDS011;13368;52.346;4.678;2023-08-24T01:45:01;8.2;;;3.7;;
25443;SDS011;13368;52.346;4.678;2023-08-24T01:50:00;7.2;;;4.2;;
25443;SDS011;13368;52.346;4.678;2023-08-24T01:55:00;6.5;;;4.2;;
25443;SDS011;13368;52.346;4.678;2023-08-24T02:00:00;7.5;;;4.4;;
25443;SDS011;13368;52.346;4.678;2023-08-24T02:05:00;6.9;;;4.2;;
25443;SDS011;13368;52.346;4.678;2023-08-24T02:10:00;7.4;;;3.9;;
25443;SDS011;13368;52.346;4.678;2023-08-24T02:15:00;10.5;;;4.6;;
25443;SDS011;13368;52.346;4.678;2023-08-24T02:20:00;5.6;;;4.1;;
25443;SDS011;13368;52.346;4.678;2023-08-24T02:25:00;5.9;;;4.4;;
25443;SDS011;13368;52.346;4.678;2023-08-24T02:30:00;6.7;;;4.9;;
25443;SDS011;13368;52.346;4.678;2023-08-24T02:35:00;8.6;;;4.7;;
25443;SDS011;13368;52.346;4.678;2023-08-24T02:40:00;10.3;;;5.0;;
25443;SDS011;13368;52.346;4.678;2023-08-24T02:45:00;7.8;;;5.3;;
25443;SDS011;13368;52.346;4.678;2023-08-24T02:50:00;7.7;;;5.3;;
25443;SDS011;13368;52.346;4.678;2023-08-24T02:55:00;8.7;;;6.1;;
25443;SDS011;13368;52.346;4.678;2023-08-24T03:00:00;10.5;;;5.9;;
25443;SDS011;13368;52.346;4.678;2023-08-24T03:05:00;9.4;;;5.8;;
25443;SDS011;13368;52.346;4.678;2023-08-24T03:10:00;9.6;;;6.0;;
25443;SDS011;13368;52.346;4.678;2023-08-24T03:15:00;8.7;;;6.4;;
25443;SDS011;13368;52.346;4.678;2023-08-24T03:20:00;10.7;;;5.9;;
25443;SDS011;13368;52.346;4.678;2023-08-24T03:25:00;8.9;;;6.0;;
25443;SDS011;13368;52.346;4.678;2023-08-24T03:30:00;8.6;;;6.0;;
25443;SDS011;13368;52.346;4.678;2023-08-24T03:35:00;9.6;;;6.6;;
25443;SDS011;13368;52.346;4.678;2023-08-24T03:40:00;9.6;;;6.6;;
25443;SDS011;13368;52.346;4.678;2023-08-24T03:45:00;7.8;;;6.7;;
25443;SDS011;13368;52.346;4.678;2023-08-24T03:50:00;12.8;;;6.9;;
25443;SDS011;13368;52.346;4.678;2023-08-24T03:55:00;10.7;;;7.2;;
25443;SDS011;13368;52.346;4.678;2023-08-24T04:00:00;12.6;;;7.7;;
25443;SDS011;13368;52.346;4.678;2023-08-24T04:05:00;10.0;;;7.0;;
25443;SDS011;13368;52.346;4.678;2023-08-24T04:10:00;11.9;;;6.7;;
25443;SDS011;13368;52.346;4.678;2023-08-24T04:15:00;11.7;;;7.3;;
25443;SDS011;13368;52.346;4.678;2023-08-24T04:20:00;10.9;;;7.7;;
25443;SDS011;13368;52.346;4.678;2023-08-24T04:25:00;14.9;;;8.0;;
25443;SDS011;13368;52.346;4.678;2023-08-24T04:30:00;13.2;;;7.9;;
25443;SDS011;13368;52.346;4.678;2023-08-24T04:35:00;11.7;;;8.3;;
25443;SDS011;13368;52.346;4.678;2023-08-24T04:40:00;12.6;;;8.4;;
25443;SDS011;13368;52.346;4.678;2023-08-24T04:45:00;15.8;;;9.2;;
25443;SDS011;13368;52.346;4.678;2023-08-24T04:50:00;13.9;;;9.4;;
25443;SDS011;13368;52.346;4.678;2023-08-24T04:55:00;16.1;;;9.9;;
25443;SDS011;13368;52.346;4.678;2023-08-24T05:00:00;18.8;;;10.8;;
25443;SDS011;13368;52.346;4.678;2023-08-24T05:05:00;14.1;;;10.2;;
25443;SDS011;13368;52.346;4.678;2023-08-24T05:10:00;16.4;;;10.3;;
25443;SDS011;13368;52.346;4.678;2023-08-24T05:15:00;17.6;;;10.5;;
25443;SDS011;13368;52.346;4.678;2023-08-24T05:20:00;17.7;;;11.5;;
25443;SDS011;13368;52.346;4.678;2023-08-24T05:25:00;18.4;;;11.1;;
25443;SDS011;13368;52.346;4.678;2023-08-24T05:35:00;19.3;;;12.1;;
25443;SDS011;13368;52.346;4.678;2023-08-24T05:40:00;17.2;;;12.3;;
25443;SDS011;13368;52.346;4.678;2023-08-24T05:45:00;16.6;;;11.8;;
25443;SDS011;13368;52.346;4.678;2023-08-24T05:50:00;19.4;;;11.6;;
25443;SDS011;13368;52.346;4.678;2023-08-24T05:55:00;18.9;;;12.5;;
25443;SDS011;13368;52.346;4.678;2023-08-24T06:00:00;17.3;;;11.2;;
25443;SDS011;13368;52.346;4.678;2023-08-24T06:05:00;16.2;;;10.9;;
25443;SDS011;13368;52.346;4.678;2023-08-24T06:10:00;17.0;;;12.0;;
25443;SDS011;13368;52.346;4.678;2023-08-24T06:15:00;17.5;;;12.0;;
25443;SDS011;13368;52.346;4.678;2023-08-24T06:20:00;17.1;;;11.5;;
25443;SDS011;13368;52.346;4.678;2023-08-24T06:25:00;16.8;;;12.3;;
25443;SDS011;13368;52.346;4.678;2023-08-24T06:30:00;19.4;;;12.0;;
25443;SDS011;13368;52.346;4.678;2023-08-24T06:35:00;18.2;;;12.1;;
25443;SDS011;13368;52.346;4.678;2023-08-24T06:40:00;16.3;;;11.6;;
25443;SDS011;13368;52.346;4.678;2023-08-24T06:45:00;18.6;;;12.0;;
25443;SDS011;13368;52.346;4.678;2023-08-24T06:50:00;17.7;;;11.5;;
25443;SDS011;13368;52.346;4.678;2023-08-24T06:55:00;16.9;;;11.1;;
25443;SDS011;13368;52.346;4.678;2023-08-24T07:00:00;16.3;;;10.5;;
25443;SDS011;13368;52.346;4.678;2023-08-24T07:05:00;16.2;;;11.2;;
25443;SDS011;13368;52.346;4.678;2023-08-24T07:10:00;15.8;;;11.4;;
25443;SDS011;13368;52.346;4.678;2023-08-24T07:15:00;18.7;;;12.3;;
25443;SDS011;13368;52.346;4.678;2023-08-24T07:20:00;19.6;;;11.9;;
25443;SDS011;13368;52.346;4.678;2023-08-24T07:25:00;18.2;;;12.0;;
25443;SDS011;13368;52.346;4.678;2023-08-24T07:30:00;22.3;;;12.3;;
25443;SDS011;13368;52.346;4.678;2023-08-24T07:35:00;18.7;;;12.3;;
25443;SDS011;13368;52.346;4.678;2023-08-24T07:40:00;17.5;;;12.6;;
25443;SDS011;13368;52.346;4.678;2023-08-24T07:45:00;17.1;;;12.1;;
25443;SDS011;13368;52.346;4.678;2023-08-24T07:50:00;16.9;;;12.0;;
25443;SDS011;13368;52.346;4.678;2023-08-24T07:55:00;17.3;;;12.8;;
25443;SDS011;13368;52.346;4.678;2023-08-24T08:00:00;20.6;;;13.9;;
25443;SDS011;13368;52.346;4.678;2023-08-24T08:05:00;21.7;;;14.4;;
25443;SDS011;13368;52.346;4.678;2023-08-24T08:10:00;19.6;;;14.3;;
25443;SDS011;13368;52.346;4.678;2023-08-24T08:15:00;20.1;;;14.4;;
25443;SDS011;13368;52.346;4.678;2023-08-24T08:20:00;18.1;;;14.0;;
25443;SDS011;13368;52.346;4.678;2023-08-24T08:25:00;21.3;;;13.9;;
25443;SDS011;13368;52.346;4.678;2023-08-24T08:30:00;16.2;;;12.9;;
25443;SDS011;13368;52.346;4.678;2023-08-24T08:35:00;20.3;;;13.1;;
25443;SDS011;13368;52.346;4.678;2023-08-24T08:40:00;18.4;;;12.9;;
25443;SDS011;13368;52.346;4.678;2023-08-24T08:45:00;24.2;;;13.0;;
25443;SDS011;13368;52.346;4.678;2023-08-24T08:50:00;20.5;;;13.2;;
25443;SDS011;13368;52.346;4.678;2023-08-24T08:55:00;19.1;;;13.4;;
25443;SDS011;13368;52.346;4.678;2023-08-24T09:00:00;20.9;;;14.3;;
25443;SDS011;13368;52.346;4.678;2023-08-24T09:05:00;18.0;;;13.3;;
25443;SDS011;13368;52.346;4.678;2023-08-24T09:10:00;18.8;;;13.9;;
25443;SDS011;13368;52.346;4.678;2023-08-24T09:15:02;16.4;;;12.8;;
25443;SDS011;13368;52.346;4.678;2023-08-24T09:20:01;18.8;;;12.9;;
25443;SDS011;13368;52.346;4.678;2023-08-24T09:25:00;22.9;;;13.8;;
25443;SDS011;13368;52.346;4.678;2023-08-24T09:30:00;17.4;;;13.3;;
25443;SDS011;13368;52.346;4.678;2023-08-24T09:35:02;17.7;;;13.5;;
25443;SDS011;13368;52.346;4.678;2023-08-24T09:40:01;22.5;;;13.3;;
25443;SDS011;13368;52.346;4.678;2023-08-24T09:45:02;20.9;;;14.1;;
25443;SDS011;13368;52.346;4.678;2023-08-24T09:50:00;16.1;;;13.5;;
25443;SDS011;13368;52.346;4.678;2023-08-24T09:55:02;17.7;;;13.2;;
25443;SDS011;13368;52.346;4.678;2023-08-24T10:00:00;20.8;;;13.3;;
25443;SDS011;13368;52.346;4.678;2023-08-24T10:05:00;18.9;;;14.0;;
25443;SDS011;13368;52.346;4.678;2023-08-24T10:10:02;18.9;;;14.4;;
25443;SDS011;13368;52.346;4.678;2023-08-24T10:15:00;20.6;;;14.3;;
25443;SDS011;13368;52.346;4.678;2023-08-24T10:20:00;22.4;;;15.6;;
25443;SDS011;13368;52.346;4.678;2023-08-24T10:25:00;25.6;;;16.4;;
25443;SDS011;13368;52.346;4.678;2023-08-24T10:30:00;25.4;;;17.1;;
25443;SDS011;13368;52.346;4.678;2023-08-24T10:35:00;22.9;;;17.0;;
25443;SDS011;13368;52.346;4.678;2023-08-24T10:40:00;23.3;;;18.6;;
25443;SDS011;13368;52.346;4.678;2023-08-24T10:45:00;27.0;;;17.5;;
25443;SDS011;13368;52.346;4.678;2023-08-24T10:50:00;25.1;;;18.4;;
25443;SDS011;13368;52.346;4.678;2023-08-24T10:55:01;30.1;;;19.8;;
25443;SDS011;13368;52.346;4.678;2023-08-24T11:00:03;25.7;;;19.4;;
25443;SDS011;13368;52.346;4.678;2023-08-24T11:05:04;24.3;;;18.7;;
25443;SDS011;13368;52.346;4.678;2023-08-24T11:10:10;24.3;;;19.5;;
25443;SDS011;13368;52.346;4.678;2023-08-24T11:15:00;28.0;;;20.2;;
25443;SDS011;13368;52.346;4.678;2023-08-24T11:20:00;26.1;;;22.0;;
25443;SDS011;13368;52.346;4.678;2023-08-24T11:25:00;25.9;;;20.6;;
25443;SDS011;13368;52.346;4.678;2023-08-24T11:30:00;26.0;;;21.1;;
25443;SDS011;13368;52.346;4.678;2023-08-24T11:35:00;24.3;;;20.7;;
25443;SDS011;13368;52.346;4.678;2023-08-24T11:40:00;23.5;;;21.0;;
25443;SDS011;13368;52.346;4.678;2023-08-24T11:45:00;26.1;;;22.4;;
25443;SDS011;13368;52.346;4.678;2023-08-24T11:50:00;28.7;;;23.7;;
25443;SDS011;13368;52.346;4.678;2023-08-24T11:55:00;30.9;;;22.2;;
25443;SDS011;13368;52.346;4.678;2023-08-24T12:00:00;25.3;;;22.5;;
25443;SDS011;13368;52.346;4.678;2023-08-24T12:05:00;24.1;;;21.5;;
25443;SDS011;13368;52.346;4.678;2023-08-24T12:10:01;25.2;;;22.3;;
25443;SDS011;13368;52.346;4.678;2023-08-24T12:15:00;24.8;;;22.1;;
25443;SDS011;13368;52.346;4.678;2023-08-24T12:20:00;26.0;;;22.3;;
25443;SDS011;13368;52.346;4.678;2023-08-24T12:25:00;25.4;;;22.7;;
25443;SDS011;13368;52.346;4.678;2023-08-24T12:30:00;27.8;;;22.3;;
25443;SDS011;13368;52.346;4.678;2023-08-24T12:35:00;26.9;;;23.3;;
25443;SDS011;13368;52.346;4.678;2023-08-24T12:40:00;17.7;;;14.2;;
25443;SDS011;13368;52.346;4.678;2023-08-24T12:45:00;13.8;;;12.3;;
25443;SDS011;13368;52.346;4.678;2023-08-24T12:50:00;16.4;;;11.4;;
25443;SDS011;13368;52.346;4.678;2023-08-24T12:55:00;9.7;;;8.6;;
25443;SDS011;13368;52.346;4.678;2023-08-24T13:00:00;12.1;;;10.5;;
25443;SDS011;13368;52.346;4.678;2023-08-24T13:05:00;13.6;;;11.6;;
25443;SDS011;13368;52.346;4.678;2023-08-24T13:10:00;12.2;;;10.9;;
25443;SDS011;13368;52.346;4.678;2023-08-24T13:15:00;14.4;;;11.6;;
25443;SDS011;13368;52.346;4.678;2023-08-24T13:20:00;15.5;;;10.5;;
25443;SDS011;13368;52.346;4.678;2023-08-24T13:25:00;11.8;;;9.8;;
25443;SDS011;13368;52.346;4.678;2023-08-24T13:30:00;14.5;;;10.2;;
25443;SDS011;13368;52.346;4.678;2023-08-24T13:35:00;12.9;;;9.8;;
25443;SDS011;13368;52.346;4.678;2023-08-24T13:40:00;13.6;;;10.4;;
25443;SDS011;13368;52.346;4.678;2023-08-24T13:45:00;14.6;;;12.2;;
25443;SDS011;13368;52.346;4.678;2023-08-24T13:50:00;13.9;;;12.4;;
25443;SDS011;13368;52.346;4.678;2023-08-24T13:55:00;20.6;;;17.3;;
25443;SDS011;13368;52.346;4.678;2023-08-24T14:00:00;23.9;;;20.5;;
25443;SDS011;13368;52.346;4.678;2023-08-24T14:05:00;28.3;;;22.4;;
25443;SDS011;13368;52.346;4.678;2023-08-24T14:10:00;27.1;;;23.4;;
25443;SDS011;13368;52.346;4.678;2023-08-24T14:15:00;28.2;;;23.6;;
25443;SDS011;13368;52.346;4.678;2023-08-24T14:20:00;30.1;;;23.4;;
25443;SDS011;13368;52.346;4.678;2023-08-24T14:25:00;27.2;;;23.2;;
25443;SDS011;13368;52.346;4.678;2023-08-24T14:30:00;28.9;;;23.3;;
25443;SDS011;13368;52.346;4.678;2023-08-24T14:35:00;30.3;;;22.6;;
25443;SDS011;13368;52.346;4.678;2023-08-24T14:40:00;28.5;;;23.6;;
25443;SDS011;13368;52.346;4.678;2023-08-24T14:45:00;27.8;;;24.5;;
25443;SDS011;13368;52.346;4.678;2023-08-24T14:50:00;30.5;;;24.1;;
25443;SDS011;13368;52.346;4.678;2023-08-24T14:55:00;29.9;;;23.5;;
25443;SDS011;13368;52.346;4.678;2023-08-24T15:00:00;32.7;;;24.4;;
25443;SDS011;13368;52.346;4.678;2023-08-24T15:05:00;30.8;;;24.7;;
25443;SDS011;13368;52.346;4.678;2023-08-24T15:10:00;28.6;;;23.1;;
25443;SDS011;13368;52.346;4.678;2023-08-24T15:15:01;27.5;;;22.7;;
25443;SDS011;13368;52.346;4.678;2023-08-24T15:20:00;26.5;;;23.0;;
25443;SDS011;13368;52.346;4.678;2023-08-24T15:25:00;31.0;;;24.0;;
25443;SDS011;13368;52.346;4.678;2023-08-24T15:30:00;27.7;;;23.5;;
25443;SDS011;13368;52.346;4.678;2023-08-24T15:35:00;28.8;;;23.8;;
25443;SDS011;13368;52.346;4.678;2023-08-24T15:40:00;29.8;;;24.7;;
25443;SDS011;13368;52.346;4.678;2023-08-24T15:45:00;unavailable;;;unavailable;;
25443;SDS011;13368;52.346;4.678;2023-08-24T15:50:00;unavailable;;;unavailable;;
25443;SDS011;13368;52.346;4.678;2023-08-24T15:55:00;unavailable;;;unavailable;;
25443;SDS011;13368;52.346;4.678;2023-08-24T16:00:00;unavailable;;;unavailable;;
25443;SDS011;13368;52.346;4.678;2023-08-24T16:05:00;unavailable;;;unavailable;;
25443;SDS011;13368;52.346;4.678;2023-08-24T16:10:00;unavailable;;;unavailable;;
25443;SDS011;13368;52.346;4.678;2023-08-24T16:15:00;unavailable;;;unavailable;;
25443;SDS011;13368;52.346;4.678;2023-08-24T16:20:02;unavailable;;;unavailable;;
25443;SDS011;13368;52.346;4.678;2023-08-24T16:25:00;unavailable;;;unavailable;;
25443;SDS011;13368;52.346;4.678;2023-08-24T16:30:00;unavailable;;;unavailable;;
25443;SDS011;13368;52.346;4.678;2023-08-24T16:35:00;unavailable;;;unavailable;;
25443;SDS011;13368;52.346;4.678;2023-08-24T16:40:00;unavailable;;;unavailable;;
25443;SDS011;13368;52.346;4.678;2023-08-24T16:45:00;unavailable;;;unavailable;;
25443;SDS011;13368;52.346;4.678;2023-08-24T16:50:00;unavailable;;;unavailable;;
25443;SDS011;13368;52.346;4.678;2023-08-24T16:55:00;unavailable;;;unavailable;;
25443;SDS011;13368;52.346;4.678;2023-08-24T17:00:00;unavailable;;;unavailable;;
25443;SDS011;13368;52.346;4.678;2023-08-24T17:05:01;unavailable;;;unavailable;;
25443;SDS011;13368;52.346;4.678;2023-08-24T17:10:00;unavailable;;;unavailable;;
25443;SDS011;13368;52.346;4.678;2023-08-24T17:15:00;unavailable;;;unavailable;;
25443;SDS011;13368;52.346;4.678;2023-08-24T17:20:00;unavailable;;;unavailable;;
25443;SDS011;13368;52.346;4.678;2023-08-24T17:25:00;unavailable;;;unavailable;;
25443;SDS011;13368;52.346;4.678;2023-08-24T17:30:00;unavailable;;;unavailable;;
25443;SDS011;13368;52.346;4.678;2023-08-24T17:35:00;18.8;;;13.9;;
25443;SDS011;13368;52.346;4.678;2023-08-24T17:40:00;15.2;;;10.4;;
25443;SDS011;13368;52.346;4.678;2023-08-24T17:45:00;11.9;;;8.9;;
25443;SDS011;13368;52.346;4.678;2023-08-24T17:50:00;11.2;;;8.4;;
25443;SDS011;13368;52.346;4.678;2023-08-24T17:55:00;10.3;;;7.4;;
25443;SDS011;13368;52.346;4.678;2023-08-24T18:00:00;9.7;;;7.6;;
25443;SDS011;13368;52.346;4.678;2023-08-24T18:05:00;11.5;;;8.9;;
25443;SDS011;13368;52.346;4.678;2023-08-24T18:10:00;12.3;;;10.7;;
25443;SDS011;13368;52.346;4.678;2023-08-24T18:15:00;12.2;;;9.5;;
25443;SDS011;13368;52.346;4.678;2023-08-24T18:20:00;12.8;;;7.3;;
25443;SDS011;13368;52.346;4.678;2023-08-24T18:25:00;8.5;;;7.3;;
25443;SDS011;13368;52.346;4.678;2023-08-24T18:30:00;9.8;;;7.5;;
25443;SDS011;13368;52.346;4.678;2023-08-24T18:35:00;13.7;;;7.7;;
25443;SDS011;13368;52.346;4.678;2023-08-24T18:40:00;8.8;;;7.3;;
25443;SDS011;13368;52.346;4.678;2023-08-24T18:45:00;12.2;;;8.1;;
25443;SDS011;13368;52.346;4.678;2023-08-24T18:50:00;8.5;;;7.3;;
25443;SDS011;13368;52.346;4.678;2023-08-24T18:55:00;10.2;;;8.0;;
25443;SDS011;13368;52.346;4.678;2023-08-24T19:00:00;11.2;;;7.6;;
25443;SDS011;13368;52.346;4.678;2023-08-24T19:05:00;13.4;;;8.1;;
25443;SDS011;13368;52.346;4.678;2023-08-24T19:10:00;12.6;;;8.3;;
25443;SDS011;13368;52.346;4.678;2023-08-24T19:15:00;11.6;;;8.9;;
25443;SDS011;13368;52.346;4.678;2023-08-24T19:20:00;14.1;;;9.2;;
25443;SDS011;13368;52.346;4.678;2023-08-24T19:35:01;12.6;;;9.4;;
25443;SDS011;13368;52.346;4.678;2023-08-24T19:40:00;11.5;;;9.2;;
25443;SDS011;13368;52.346;4.678;2023-08-24T19:45:00;11.2;;;9.3;;
25443;SDS011;13368;52.346;4.678;2023-08-24T19:50:00;13.2;;;9.7;;
25443;SDS011;13368;52.346;4.678;2023-08-24T19:55:00;12.4;;;10.2;;
25443;SDS011;13368;52.346;4.678;2023-08-24T20:00:00;12.3;;;10.4;;
25443;SDS011;13368;52.346;4.678;2023-08-24T20:05:00;12.6;;;11.0;;
25443;SDS011;13368;52.346;4.678;2023-08-24T20:10:00;13.8;;;11.7;;
25443;SDS011;13368;52.346;4.678;2023-08-24T20:15:00;13.5;;;11.0;;
25443;SDS011;13368;52.346;4.678;2023-08-24T20:20:00;15.9;;;11.0;;
25443;SDS011;13368;52.346;4.678;2023-08-24T20:25:00;14.7;;;11.7;;
25443;SDS011;13368;52.346;4.678;2023-08-24T20:30:00;13.6;;;12.1;;
25443;SDS011;13368;52.346;4.678;2023-08-24T20:35:00;16.8;;;12.3;;
25443;SDS011;13368;52.346;4.678;2023-08-24T20:40:00;14.9;;;12.3;;
25443;SDS011;13368;52.346;4.678;2023-08-24T20:45:00;15.9;;;12.5;;
25443;SDS011;13368;52.346;4.678;2023-08-24T20:50:00;18.0;;;13.8;;
25443;SDS011;13368;52.346;4.678;2023-08-24T20:55:00;17.6;;;15.1;;
25443;SDS011;13368;52.346;4.678;2023-08-24T21:00:00;23.6;;;17.2;;
25443;SDS011;13368;52.346;4.678;2023-08-24T21:05:00;21.0;;;16.3;;
25443;SDS011;13368;52.346;4.678;2023-08-24T21:10:00;20.8;;;17.0;;
25443;SDS011;13368;52.346;4.678;2023-08-24T21:15:00;20.6;;;16.6;;
25443;SDS011;13368;52.346;4.678;2023-08-24T21:20:00;22.2;;;17.5;;
25443;SDS011;13368;52.346;4.678;2023-08-24T21:25:00;24.3;;;18.7;;
25443;SDS011;13368;52.346;4.678;2023-08-24T21:30:00;23.2;;;18.1;;
25443;SDS011;13368;52.346;4.678;2023-08-24T21:35:00;21.2;;;18.2;;
25443;SDS011;13368;52.346;4.678;2023-08-24T21:40:00;23.7;;;19.1;;
25443;SDS011;13368;52.346;4.678;2023-08-24T21:45:00;23.8;;;19.6;;
25443;SDS011;13368;52.346;4.678;2023-08-24T21:50:00;22.1;;;18.4;;
25443;SDS011;13368;52.346;4.678;2023-08-24T21:55:00;24.8;;;18.5;;
25443;SDS011;13368;52.346;4.678;2023-08-24T22:00:00;24.3;;;18.0;;
25443;SDS011;13368;52.346;4.678;2023-08-24T22:05:00;25.8;;;18.7;;
25443;SDS011;13368;52.346;4.678;2023-08-24T22:10:00;27.8;;;19.8;;
25443;SDS011;13368;52.346;4.678;2023-08-24T22:15:00;26.5;;;20.1;;
25443;SDS011;13368;52.346;4.678;2023-08-24T22:20:00;28.2;;;20.7;;
25443;SDS011;13368;52.346;4.678;2023-08-24T22:25:00;30.9;;;22.6;;
25443;SDS011;13368;52.346;4.678;2023-08-24T22:30:00;30.8;;;23.0;;
25443;SDS011;13368;52.346;4.678;2023-08-24T22:35:00;31.0;;;23.1;;
25443;SDS011;13368;52.346;4.678;2023-08-24T22:40:00;30.8;;;23.1;;
25443;SDS011;13368;52.346;4.678;2023-08-24T22:45:00;30.4;;;22.2;;
25443;SDS011;13368;52.346;4.678;2023-08-24T22:50:00;31.5;;;23.0;;
25443;SDS011;13368;52.346;4.678;2023-08-24T22:55:00;30.9;;;22.2;;
25443;SDS011;13368;52.346;4.678;2023-08-24T23:00:00;38.5;;;21.9;;
25443;SDS011;13368;52.346;4.678;2023-08-24T23:05:00;28.2;;;20.7;;
25443;SDS011;13368;52.346;4.678;2023-08-24T23:10:00;29.0;;;20.7;;
25443;SDS011;13368;52.346;4.678;2023-08-24T23:15:00;27.8;;;20.5;;
25443;SDS011;13368;52.346;4.678;2023-08-24T23:20:00;29.1;;;20.4;;
25443;SDS011;13368;52.346;4.678;2023-08-24T23:25:00;26.6;;;19.8;;
25443;SDS011;13368;52.346;4.678;2023-08-24T23:30:00;27.4;;;19.0;;
25443;SDS011;13368;52.346;4.678;2023-08-24T23:35:00;27.2;;;18.9;;
25443;SDS011;13368;52.346;4.678;2023-08-24T23:40:00;26.6;;;19.3;;
25443;SDS011;13368;52.346;4.678;2023-08-24T23:45:00;29.1;;;19.2;;
25443;SDS011;13368;52.346;4.678;2023-08-24T23:50:00;26.9;;;18.7;;
25443;SDS011;13368;52.346;4.678;2023-08-24T23:55:00;26.0;;;18.8;;
